Time;durP1;ratioP1;P1;durP2;ratioP2;P2;SDS_P1;SDS_P2;PMS_P1;PMS_P2;Temp;Humidity;BMP_temperature;BMP_pressure;BME280_temperature;BME280_humidity;BME280_pressure;Samples;Min_cycle;Max_cycle;Signal;HPM_P1;HPM_P2
2022/05/15 00:02:09;;;;;;;9.83;9.03;;;15.40;99.90;;;;;;5073975;28;20535;-70
2022/05/15 00:04:35;;;;;;;11.07;9.70;;;15.30;99.90;;;;;;5053234;28;20471;-70
2022/05/15 00:07:01;;;;;;;12.30;9.43;;;15.30;99.90;;;;;;5070793;28;20686;-70
2022/05/15 00:09:27;;;;;;;10.40;9.50;;;15.20;99.90;;;;;;5070479;28;20459;-70
2022/05/15 00:11:52;;;;;;;12.70;9.67;;;15.30;99.90;;;;;;5071119;28;20272;-70
2022/05/15 00:14:18;;;;;;;10.57;9.57;;;15.30;99.90;;;;;;5070848;28;20218;-71
2022/05/15 00:16:44;;;;;;;10.83;9.60;;;15.20;99.90;;;;;;5052257;28;20197;-70
2022/05/15 00:19:10;;;;;;;11.30;9.47;;;15.20;99.90;;;;;;5051648;28;20217;-70
2022/05/15 00:21:36;;;;;;;11.00;9.80;;;15.20;99.90;;;;;;5070978;28;20447;-70
2022/05/15 00:24:03;;;;;;;10.93;9.40;;;15.10;99.90;;;;;;5070372;28;20215;-70
2022/05/15 00:26:29;;;;;;;10.33;9.43;;;15.20;99.90;;;;;;5070906;28;20542;-70
2022/05/15 00:28:54;;;;;;;10.60;9.70;;;15.10;99.90;;;;;;5088735;28;20546;-70
2022/05/15 00:31:20;;;;;;;9.80;8.90;;;15.10;99.90;;;;;;5089902;28;20192;-70
2022/05/15 00:33:45;;;;;;;11.23;9.70;;;15.00;99.90;;;;;;5090997;28;20213;-70
2022/05/15 00:36:11;;;;;;;12.97;10.30;;;15.00;99.90;;;;;;5084255;28;20197;-70
2022/05/15 00:38:37;;;;;;;11.60;9.37;;;15.00;99.90;;;;;;5052734;28;20284;-70
2022/05/15 00:41:03;;;;;;;11.30;9.13;;;15.00;99.90;;;;;;5070025;28;20197;-70
2022/05/15 00:43:38;;;;;;;10.93;9.20;;;15.00;99.90;;;;;;5070694;28;20233;-70
2022/05/15 00:46:06;;;;;;;10.17;9.17;;;14.90;99.90;;;;;;5069354;28;20815;-71
2022/05/15 00:48:32;;;;;;;10.97;9.80;;;14.90;99.90;;;;;;5070606;28;20518;-70
2022/05/15 00:51:02;;;;;;;9.60;8.60;;;14.90;99.90;;;;;;5071202;28;20442;-70
2022/05/15 00:53:27;;;;;;;12.30;8.90;;;14.90;99.90;;;;;;5070543;28;20432;-71
2022/05/15 00:55:53;;;;;;;11.60;8.83;;;14.90;99.90;;;;;;5070248;28;20446;-70
2022/05/15 00:58:28;;;;;;;11.87;9.20;;;14.80;99.90;;;;;;5084468;28;20215;-71
2022/05/15 01:00:54;;;;;;;12.50;9.60;;;14.80;99.90;;;;;;5089273;28;20560;-70
2022/05/15 01:03:21;;;;;;;10.27;8.83;;;14.80;99.90;;;;;;5090636;28;20439;-71
2022/05/15 01:05:55;;;;;;;10.53;9.20;;;14.70;99.90;;;;;;5072105;28;20251;-70
2022/05/15 01:08:22;;;;;;;14.00;9.60;;;14.70;99.90;;;;;;5090190;28;20799;-70
2022/05/15 01:10:55;;;;;;;12.33;9.70;;;14.70;99.90;;;;;;5090095;28;20511;-70
2022/05/15 01:13:24;;;;;;;10.77;9.63;;;14.60;99.90;;;;;;5090643;28;20982;-71
2022/05/15 01:15:50;;;;;;;10.70;9.60;;;14.60;99.90;;;;;;5091169;28;20443;-70
2022/05/15 01:18:23;;;;;;;13.07;10.47;;;14.50;99.90;;;;;;5094259;28;20488;-71
2022/05/15 01:20:56;;;;;;;10.67;9.13;;;14.50;99.90;;;;;;5094017;28;20494;-70
2022/05/15 01:23:22;;;;;;;10.33;9.33;;;14.50;99.90;;;;;;5094649;28;20462;-70
2022/05/15 01:25:48;;;;;;;10.93;9.93;;;14.50;99.90;;;;;;5092610;28;20854;-71
2022/05/15 01:28:22;;;;;;;11.20;8.97;;;14.50;99.90;;;;;;5094087;28;20204;-71
2022/05/15 01:30:51;;;;;;;10.70;9.80;;;14.50;99.90;;;;;;5093581;28;20339;-70
2022/05/15 01:33:17;;;;;;;10.33;9.37;;;14.40;99.90;;;;;;5094302;28;20438;-70
2022/05/15 01:35:43;;;;;;;12.63;10.30;;;14.40;99.90;;;;;;5094030;28;20439;-70
2022/05/15 01:38:10;;;;;;;9.50;8.50;;;14.30;99.90;;;;;;5094181;28;20418;-70
2022/05/15 01:40:36;;;;;;;9.03;8.23;;;14.30;99.90;;;;;;5094006;28;20451;-70
2022/05/15 01:43:04;;;;;;;12.80;9.50;;;14.20;99.90;;;;;;5092025;28;20438;-71
2022/05/15 01:45:30;;;;;;;9.23;8.30;;;14.20;99.90;;;;;;5073574;28;20420;-71
2022/05/15 01:47:55;;;;;;;9.93;9.03;;;14.20;99.90;;;;;;5073120;28;21057;-71
2022/05/15 01:50:21;;;;;;;9.30;8.50;;;14.20;99.90;;;;;;5073549;28;20247;-71
2022/05/15 01:52:47;;;;;;;10.60;9.80;;;14.20;99.90;;;;;;5073720;28;20720;-71
2022/05/15 01:55:13;;;;;;;11.90;8.47;;;14.20;99.90;;;;;;5073784;28;20221;-71
2022/05/15 01:57:40;;;;;;;11.63;9.63;;;14.10;99.90;;;;;;5081669;28;20216;-71
2022/05/15 02:00:08;;;;;;;12.97;9.07;;;14.10;99.90;;;;;;5092667;28;20423;-70
2022/05/15 02:02:33;;;;;;;10.90;8.97;;;14.10;99.90;;;;;;5074852;28;21048;-70
2022/05/15 02:04:59;;;;;;;9.90;8.90;;;14.00;99.90;;;;;;5073202;28;20427;-71
2022/05/15 02:07:24;;;;;;;9.70;8.70;;;14.10;99.90;;;;;;5073202;28;20232;-71
2022/05/15 02:09:50;;;;;;;10.67;9.57;;;14.00;99.90;;;;;;5072985;28;20201;-70
2022/05/15 02:12:15;;;;;;;10.17;9.23;;;14.00;99.90;;;;;;5072592;28;20271;-71
2022/05/15 02:14:41;;;;;;;10.70;9.20;;;14.00;99.90;;;;;;5072882;28;20197;-71
2022/05/15 02:17:07;;;;;;;10.70;8.40;;;14.00;99.90;;;;;;5072126;28;20214;-71
2022/05/15 02:19:32;;;;;;;10.67;8.60;;;14.00;99.90;;;;;;5089152;28;20208;-71
2022/05/15 02:21:58;;;;;;;9.93;8.83;;;13.90;99.90;;;;;;5093008;28;20246;-71
2022/05/15 02:24:23;;;;;;;10.67;8.50;;;13.90;99.90;;;;;;5093854;28;20276;-71
2022/05/15 02:26:49;;;;;;;10.00;8.97;;;13.90;99.90;;;;;;5092404;28;20205;-70
2022/05/15 02:29:15;;;;;;;9.83;8.90;;;13.90;99.90;;;;;;5073807;28;20296;-71
2022/05/15 02:31:40;;;;;;;10.03;8.60;;;13.90;99.90;;;;;;5093400;28;20287;-70
2022/05/15 02:34:06;;;;;;;10.40;8.27;;;13.90;99.90;;;;;;5092897;28;20278;-71
2022/05/15 02:36:32;;;;;;;10.33;9.20;;;13.80;99.90;;;;;;5080796;28;20207;-71
2022/05/15 02:38:57;;;;;;;11.13;9.00;;;13.80;99.90;;;;;;5072369;28;20620;-71
2022/05/15 02:41:23;;;;;;;10.20;9.20;;;13.80;99.90;;;;;;5073393;28;20205;-71
2022/05/15 02:43:48;;;;;;;9.80;8.80;;;13.70;99.90;;;;;;5073950;28;20200;-71
2022/05/15 02:46:14;;;;;;;9.47;8.57;;;13.70;99.90;;;;;;5073727;28;20704;-72
2022/05/15 02:51:24;;;;;;;10.20;9.10;;;13.60;99.90;;;;;;5080645;28;20264;-71
2022/05/15 02:53:50;;;;;;;10.43;9.53;;;13.50;99.90;;;;;;5093728;28;20975;-71
2022/05/15 02:56:25;;;;;;;10.37;8.80;;;13.50;99.90;;;;;;5093883;28;20183;-71
2022/05/15 02:58:50;;;;;;;10.30;9.40;;;13.60;99.90;;;;;;5094124;28;20718;-71
2022/05/15 03:01:16;;;;;;;15.27;9.80;;;13.60;99.90;;;;;;5093859;28;20410;-71
2022/05/15 03:03:43;;;;;;;12.93;9.63;;;13.60;99.90;;;;;;5093887;28;20234;-71
2022/05/15 03:06:08;;;;;;;10.30;9.40;;;13.50;99.90;;;;;;5094300;28;20447;-71
2022/05/15 03:08:36;;;;;;;9.67;8.80;;;13.30;99.90;;;;;;5084649;28;20980;-70
2022/05/15 03:11:02;;;;;;;11.03;9.10;;;13.30;99.90;;;;;;5085799;28;20566;-70
2022/05/15 03:13:28;;;;;;;9.40;8.43;;;13.10;99.90;;;;;;5101459;28;20438;-71
2022/05/15 03:15:54;;;;;;;10.90;9.80;;;13.00;99.90;;;;;;5109830;28;20478;-70
2022/05/15 03:18:20;;;;;;;11.27;10.13;;;12.90;99.90;;;;;;5109973;28;20414;-70
2022/05/15 03:20:45;;;;;;;10.50;9.50;;;12.80;99.90;;;;;;5108679;28;20428;-71
2022/05/15 03:23:11;;;;;;;10.77;9.77;;;12.80;99.90;;;;;;5109546;28;20184;-70
2022/05/15 03:25:37;;;;;;;10.40;9.50;;;12.70;99.90;;;;;;5101798;28;20200;-70
2022/05/15 03:28:09;;;;;;;11.20;10.10;;;12.80;99.90;;;;;;5073501;28;20284;-71
2022/05/15 03:30:38;;;;;;;10.97;9.63;;;12.80;99.90;;;;;;5073077;28;20415;-71
2022/05/15 03:33:04;;;;;;;10.60;9.60;;;12.70;99.90;;;;;;5073114;28;20438;-71
2022/05/15 03:35:30;;;;;;;10.20;9.30;;;12.70;99.90;;;;;;5073113;28;20901;-71
2022/05/15 03:37:56;;;;;;;10.80;9.10;;;12.80;99.90;;;;;;5072409;28;20216;-71
2022/05/15 03:40:21;;;;;;;10.57;9.47;;;12.90;99.90;;;;;;5072552;28;20598;-71
2022/05/15 03:42:47;;;;;;;10.53;9.63;;;12.90;99.90;;;;;;5073685;28;20212;-71
2022/05/15 03:45:14;;;;;;;10.53;9.57;;;12.90;99.90;;;;;;5072741;28;20206;-71
2022/05/15 03:47:51;;;;;;;10.17;9.17;;;12.90;99.90;;;;;;5072620;28;20469;-71
2022/05/15 03:50:18;;;;;;;10.80;9.70;;;12.80;99.90;;;;;;5071558;28;20165;-71
2022/05/15 03:52:44;;;;;;;10.43;9.40;;;12.80;99.90;;;;;;5072368;28;20490;-71
2022/05/15 03:55:10;;;;;;;10.17;9.23;;;12.70;99.90;;;;;;5072402;28;20483;-70
2022/05/15 03:57:36;;;;;;;13.77;9.63;;;12.80;99.90;;;;;;5072233;28;20177;-70
2022/05/15 04:00:03;;;;;;;9.90;9.00;;;12.80;99.90;;;;;;5073094;28;20415;-70
2022/05/15 04:02:29;;;;;;;10.47;9.40;;;12.90;99.90;;;;;;5072139;28;20451;-71
2022/05/15 04:04:55;;;;;;;11.73;9.67;;;12.90;99.90;;;;;;5079637;28;20469;-70
2022/05/15 04:07:20;;;;;;;11.43;9.70;;;12.90;99.90;;;;;;5072451;28;20447;-70
2022/05/15 04:09:46;;;;;;;9.37;8.47;;;13.00;99.90;;;;;;5072104;28;20169;-70
2022/05/15 04:12:13;;;;;;;10.70;9.70;;;13.00;99.90;;;;;;5073258;28;20201;-71
2022/05/15 04:14:41;;;;;;;11.10;8.73;;;13.00;99.90;;;;;;5072206;28;20166;-70
2022/05/15 04:17:07;;;;;;;10.53;8.60;;;13.10;99.90;;;;;;5072075;28;20400;-70
2022/05/15 04:19:37;;;;;;;10.40;9.40;;;13.10;99.90;;;;;;5071615;28;20410;-70
2022/05/15 04:22:05;;;;;;;9.87;8.90;;;13.20;99.90;;;;;;5072691;28;20193;-70
2022/05/15 04:24:32;;;;;;;10.80;9.70;;;13.20;99.90;;;;;;5072100;28;20486;-70
2022/05/15 04:26:58;;;;;;;9.93;9.00;;;13.20;99.90;;;;;;5071886;28;20508;-70
2022/05/15 04:29:24;;;;;;;10.17;9.27;;;13.30;99.90;;;;;;5071606;28;20410;-70
2022/05/15 04:31:55;;;;;;;10.47;9.50;;;13.30;99.90;;;;;;5071665;28;20403;-70
2022/05/15 04:34:21;;;;;;;11.07;9.73;;;13.20;99.90;;;;;;5072109;28;20503;-70
2022/05/15 04:36:47;;;;;;;11.30;9.80;;;13.20;99.90;;;;;;5081566;28;20426;-70
2022/05/15 04:39:13;;;;;;;11.57;9.77;;;13.10;99.90;;;;;;5091711;28;20407;-70
2022/05/15 04:41:39;;;;;;;11.37;10.37;;;13.00;99.90;;;;;;5091801;28;20555;-70
2022/05/15 04:44:04;;;;;;;11.20;9.87;;;12.90;99.90;;;;;;5091829;28;20426;-70
2022/05/15 04:46:30;;;;;;;10.60;9.50;;;12.80;99.90;;;;;;5090224;28;20308;-70
2022/05/15 04:48:56;;;;;;;10.63;9.40;;;12.80;99.90;;;;;;5091726;28;20183;-70
2022/05/15 04:51:22;;;;;;;10.97;9.83;;;12.80;99.90;;;;;;5090991;28;20165;-70
2022/05/15 04:53:47;;;;;;;9.63;8.73;;;12.80;99.90;;;;;;5092107;28;20423;-70
2022/05/15 04:56:13;;;;;;;9.93;9.10;;;12.90;99.90;;;;;;5091906;28;20217;-70
2022/05/15 04:58:38;;;;;;;10.13;9.13;;;12.90;99.90;;;;;;5090303;28;20180;-70
2022/05/15 05:01:04;;;;;;;11.57;10.40;;;13.00;99.90;;;;;;5091626;28;20671;-70
2022/05/15 05:03:29;;;;;;;9.80;8.87;;;13.00;99.90;;;;;;5091554;28;20212;-70
2022/05/15 05:05:55;;;;;;;11.07;10.07;;;13.00;99.90;;;;;;5091686;28;20176;-70
2022/05/15 05:08:20;;;;;;;10.33;9.07;;;13.00;99.90;;;;;;5090185;28;20211;-70
2022/05/15 05:10:46;;;;;;;12.23;9.17;;;13.00;99.90;;;;;;5091174;28;20297;-70
2022/05/15 05:13:13;;;;;;;11.67;9.33;;;13.10;99.90;;;;;;5101452;22;20221;-67
2022/05/15 05:15:39;;;;;;;14.00;10.20;;;13.20;99.90;;;;;;5070111;28;20244;-67
2022/05/15 05:18:05;;;;;;;10.93;9.50;;;13.20;99.90;;;;;;5071648;28;20404;-68
2022/05/15 05:20:30;;;;;;;10.77;9.60;;;13.30;99.90;;;;;;5072079;28;20816;-68
2022/05/15 05:22:56;;;;;;;11.93;9.83;;;13.30;99.90;;;;;;5071213;28;20236;-65
2022/05/15 05:25:21;;;;;;;12.93;10.80;;;13.40;99.90;;;;;;5071019;28;20197;-66
2022/05/15 05:27:47;;;;;;;11.00;9.90;;;13.40;99.90;;;;;;5071336;28;20201;-67
2022/05/15 05:30:17;;;;;;;9.97;9.07;;;13.50;99.90;;;;;;5072258;28;20178;-67
2022/05/15 05:32:43;;;;;;;12.50;10.60;;;13.50;99.90;;;;;;5071452;28;20230;-66
2022/05/15 05:35:10;;;;;;;10.50;9.50;;;13.60;99.90;;;;;;5071551;28;20412;-67
2022/05/15 05:37:36;;;;;;;9.73;8.80;;;13.60;99.90;;;;;;5071756;28;20942;-68
2022/05/15 05:40:02;;;;;;;10.82;9.82;;;13.70;99.90;;;;;;5072250;28;20497;-69
2022/05/15 05:42:28;;;;;;;10.17;9.37;;;13.80;99.90;;;;;;5069871;28;20217;-68
2022/05/15 05:44:54;;;;;;;11.07;10.00;;;13.80;99.90;;;;;;5070134;28;20407;-67
2022/05/15 05:47:24;;;;;;;12.17;9.33;;;13.90;99.90;;;;;;5071053;28;20521;-67
2022/05/15 05:49:50;;;;;;;9.63;8.63;;;13.90;99.90;;;;;;5071115;28;20178;-67
2022/05/15 05:52:16;;;;;;;10.57;9.47;;;14.00;99.90;;;;;;5072328;28;20966;-67
2022/05/15 05:54:42;;;;;;;10.70;9.70;;;14.10;99.90;;;;;;5070728;28;20161;-67
2022/05/15 05:57:07;;;;;;;9.63;8.67;;;14.20;99.90;;;;;;5071296;28;20468;-67
2022/05/15 05:59:33;;;;;;;9.03;8.20;;;14.20;99.90;;;;;;5071071;28;20172;-68
2022/05/15 06:01:58;;;;;;;9.53;8.63;;;14.30;99.90;;;;;;5073681;28;20238;-67
2022/05/15 06:04:40;;;;;;;10.83;9.57;;;14.40;99.90;;;;;;5074731;28;20185;-67
2022/05/15 06:07:07;;;;;;;10.30;8.43;;;14.40;99.90;;;;;;5074650;28;20208;-67
2022/05/15 06:09:33;;;;;;;10.17;8.67;;;14.50;99.90;;;;;;5074335;28;20454;-67
2022/05/15 06:11:59;;;;;;;9.63;8.57;;;14.60;99.90;;;;;;5075506;28;20420;-67
2022/05/15 06:14:25;;;;;;;10.50;9.20;;;14.60;99.90;;;;;;5074777;28;20412;-67
2022/05/15 06:16:50;;;;;;;8.83;8.03;;;14.70;99.90;;;;;;5086163;28;20425;-67
2022/05/15 06:19:16;;;;;;;9.80;8.90;;;14.80;99.90;;;;;;5094444;28;20541;-67
2022/05/15 06:21:41;;;;;;;10.20;8.47;;;15.00;99.90;;;;;;5094746;28;20172;-68
2022/05/15 06:24:07;;;;;;;10.60;9.20;;;15.00;99.90;;;;;;5094502;28;20192;-67
2022/05/15 06:26:32;;;;;;;10.27;8.50;;;15.10;99.90;;;;;;5092797;28;20228;-66
2022/05/15 06:28:58;;;;;;;9.37;7.90;;;15.20;99.90;;;;;;5094103;28;20219;-67
2022/05/15 06:31:23;;;;;;;8.77;8.07;;;15.30;99.90;;;;;;5094170;28;20227;-68
2022/05/15 06:33:49;;;;;;;9.90;8.40;;;15.50;99.90;;;;;;5094172;28;20195;-67
2022/05/15 06:36:15;;;;;;;8.67;7.77;;;15.50;99.90;;;;;;5094447;28;20226;-67
2022/05/15 06:38:42;;;;;;;8.93;7.60;;;15.60;99.90;;;;;;5074997;28;20446;-66
2022/05/15 06:41:09;;;;;;;9.70;7.30;;;15.70;99.90;;;;;;5073381;28;20177;-67
2022/05/15 06:43:34;;;;;;;9.57;7.23;;;15.80;99.90;;;;;;5073529;28;20450;-67
2022/05/15 06:46:00;;;;;;;7.07;6.37;;;15.90;99.90;;;;;;5073038;28;20944;-68
2022/05/15 06:48:25;;;;;;;7.90;6.97;;;16.00;99.90;;;;;;5077084;28;20510;-68
2022/05/15 06:50:51;;;;;;;7.00;6.37;;;16.10;99.90;;;;;;5073020;28;20172;-66
2022/05/15 06:53:16;;;;;;;10.93;7.60;;;16.20;99.90;;;;;;5073121;28;20289;-68
2022/05/15 06:57:28;;;;;;;11.90;7.50;;;16.40;99.90;;;;;;5073647;28;20537;-68
2022/05/15 06:58:28;;;;;;;10.23;6.70;;;16.50;99.90;;;;;;5073068;28;20182;-67
2022/05/15 07:00:54;;;;;;;8.33;7.33;;;16.60;99.90;;;;;;5074763;28;20419;-67
2022/05/15 07:03:20;;;;;;;9.10;6.87;;;16.70;99.90;;;;;;5069340;28;20463;-67
2022/05/15 07:05:45;;;;;;;11.87;6.67;;;16.80;99.90;;;;;;5075020;28;20270;-65
2022/05/15 07:08:11;;;;;;;8.37;6.50;;;16.90;99.90;;;;;;5077919;28;20457;-67
2022/05/15 07:10:37;;;;;;;7.13;6.43;;;17.00;99.90;;;;;;5083942;28;20174;-66
2022/05/15 07:13:03;;;;;;;8.23;6.63;;;17.10;99.90;;;;;;5080883;28;20459;-67
2022/05/15 07:15:30;;;;;;;9.70;6.20;;;17.20;99.90;;;;;;5086335;28;20949;-67
2022/05/15 07:17:56;;;;;;;7.80;6.70;;;17.30;99.90;;;;;;5076970;28;20523;-66
2022/05/15 07:20:21;;;;;;;7.60;6.90;;;17.40;99.90;;;;;;5068888;28;20478;-66
2022/05/15 07:22:47;;;;;;;8.97;6.67;;;17.50;99.90;;;;;;5069023;28;20998;-66
2022/05/15 07:25:13;;;;;;;10.53;6.73;;;17.70;99.90;;;;;;5066784;28;20672;-66
2022/05/15 07:27:38;;;;;;;6.63;6.10;;;17.80;99.90;;;;;;5069017;28;20677;-66
2022/05/15 07:30:05;;;;;;;7.00;6.27;;;17.90;99.90;;;;;;5071418;28;20264;-67
2022/05/15 07:32:31;;;;;;;7.77;6.00;;;18.00;99.90;;;;;;5068668;28;20205;-67
2022/05/15 07:34:57;;;;;;;10.00;6.63;;;18.10;99.90;;;;;;5068969;28;20416;-67
2022/05/15 07:37:22;;;;;;;8.03;5.90;;;18.20;99.80;;;;;;5081814;28;20191;-66
2022/05/15 07:39:47;;;;;;;7.07;6.13;;;18.30;99.60;;;;;;5071657;28;20874;-66
2022/05/15 07:42:14;;;;;;;10.73;6.20;;;18.40;98.20;;;;;;5076659;28;20224;-66
2022/05/15 07:44:39;;;;;;;6.07;5.17;;;18.50;98.20;;;;;;5081508;28;20256;-67
2022/05/15 07:47:05;;;;;;;7.50;5.30;;;18.70;97.60;;;;;;5078859;28;20879;-66
2022/05/15 07:49:31;;;;;;;6.87;5.53;;;18.90;97.70;;;;;;5073755;28;20602;-66
2022/05/15 07:51:57;;;;;;;6.97;5.50;;;19.10;97.30;;;;;;5076309;28;20542;-67
2022/05/15 07:54:23;;;;;;;9.13;6.03;;;19.20;96.30;;;;;;5090867;28;20411;-69
2022/05/15 07:56:48;;;;;;;9.43;6.10;;;19.40;94.80;;;;;;5089652;28;20173;-69
2022/05/15 07:59:14;;;;;;;9.70;6.27;;;19.50;94.50;;;;;;5088600;28;20173;-68
2022/05/15 08:01:40;;;;;;;6.83;5.50;;;19.60;93.90;;;;;;5088637;28;20200;-68
2022/05/15 08:04:06;;;;;;;6.83;5.50;;;19.60;93.20;;;;;;5089506;28;21160;-67
2022/05/15 08:09:16;;;;;;;6.53;5.07;;;19.90;93.50;;;;;;5090699;28;20163;-68
2022/05/15 08:11:41;;;;;;;9.33;6.13;;;20.00;93.40;;;;;;5091208;28;20490;-68
2022/05/15 08:14:08;;;;;;;7.63;5.20;;;20.10;92.50;;;;;;5077322;28;20251;-68
2022/05/15 08:16:35;;;;;;;14.13;5.47;;;20.00;91.50;;;;;;5072441;28;20587;-68
2022/05/15 08:24:30;;;;;;;8.23;4.63;;;20.20;90.90;;;;;;5073660;28;20438;-69
2022/05/15 08:26:56;;;;;;;4.73;4.10;;;20.40;90.70;;;;;;5072384;28;20448;-69
2022/05/15 08:29:22;;;;;;;9.93;4.60;;;20.50;90.40;;;;;;5071948;28;20215;-69
2022/05/15 08:31:48;;;;;;;7.90;4.30;;;20.60;89.50;;;;;;5072178;28;20403;-68
2022/05/15 08:34:14;;;;;;;5.60;4.33;;;20.70;88.50;;;;;;5073880;28;20166;-68
2022/05/15 08:36:42;;;;;;;5.10;4.17;;;20.80;87.90;;;;;;5080675;28;20575;-67
2022/05/15 08:39:09;;;;;;;10.93;4.83;;;20.90;87.40;;;;;;5091956;28;20927;-70
2022/05/15 08:41:41;;;;;;;9.63;4.57;;;20.90;87.60;;;;;;5092452;28;20407;-69
2022/05/15 08:44:29;;;;;;;6.53;4.80;;;21.00;87.70;;;;;;5091259;28;20405;-68
2022/05/15 08:47:17;;;;;;;6.10;4.23;;;21.10;87.50;;;;;;5090155;28;20477;-70
2022/05/15 08:49:50;;;;;;;9.57;4.63;;;21.00;85.50;;;;;;5070088;28;20446;-68
2022/05/15 08:52:35;;;;;;;9.60;4.30;;;21.10;86.30;;;;;;5071908;28;20428;-68
2022/05/15 08:55:11;;;;;;;5.97;5.33;;;21.20;85.80;;;;;;5072073;28;20404;-68
2022/05/15 08:57:58;;;;;;;5.67;4.00;;;21.40;84.60;;;;;;5073074;28;20423;-68
2022/05/15 09:00:28;;;;;;;5.03;3.77;;;21.50;82.70;;;;;;5071560;28;20400;-71
2022/05/15 09:02:59;;;;;;;4.80;3.70;;;21.60;81.60;;;;;;5071777;28;20423;-69
2022/05/15 09:05:27;;;;;;;7.47;4.07;;;21.70;80.50;;;;;;5071820;28;20432;-68
2022/05/15 09:08:09;;;;;;;6.30;4.13;;;21.60;79.70;;;;;;5073481;28;20542;-68
2022/05/15 09:10:49;;;;;;;6.70;3.90;;;21.60;80.80;;;;;;5091633;28;20403;-68
2022/05/15 09:13:30;;;;;;;4.73;4.13;;;21.60;78.80;;;;;;5091516;28;20496;-68
2022/05/15 09:16:02;;;;;;;4.63;3.80;;;21.60;78.20;;;;;;5091731;28;20398;-68
2022/05/15 09:18:29;;;;;;;5.73;3.87;;;21.70;78.00;;;;;;5089553;28;20416;-67
2022/05/15 09:21:01;;;;;;;8.73;4.30;;;21.70;76.80;;;;;;5091240;28;20505;-68
2022/05/15 09:23:49;;;;;;;4.90;3.90;;;21.70;76.20;;;;;;5091449;28;20429;-68
2022/05/15 09:26:29;;;;;;;4.80;3.40;;;21.70;76.80;;;;;;5091321;28;20411;-67
2022/05/15 09:28:58;;;;;;;3.97;3.67;;;21.70;76.60;;;;;;5089791;28;20407;-68
2022/05/15 09:31:30;;;;;;;5.00;3.83;;;21.80;76.80;;;;;;5091453;28;20464;-68
2022/05/15 09:34:04;;;;;;;8.80;3.80;;;21.80;73.40;;;;;;5091445;28;20429;-69
2022/05/15 09:36:35;;;;;;;5.73;3.47;;;21.80;73.60;;;;;;5092395;28;20497;-68
2022/05/15 09:39:49;;;;;;;6.77;3.90;;;21.90;73.80;;;;;;5095507;28;20446;-68
2022/05/15 09:44:58;;;;;;;4.47;3.50;;;22.40;72.60;;;;;;5052754;28;20407;-68
2022/05/15 09:47:32;;;;;;;4.77;3.90;;;22.40;71.70;;;;;;5035941;28;20455;-68
2022/05/15 09:49:59;;;;;;;6.03;3.93;;;22.50;71.60;;;;;;5052306;28;20180;-69
2022/05/15 09:52:27;;;;;;;5.23;4.10;;;22.60;72.00;;;;;;5050120;28;20483;-69
2022/05/15 09:55:05;;;;;;;3.90;3.53;;;22.70;71.70;;;;;;5052518;28;20411;-69
2022/05/15 09:57:30;;;;;;;6.40;4.93;;;22.60;69.80;;;;;;5052462;28;20404;-68
2022/05/15 09:59:57;;;;;;;4.73;4.20;;;22.60;68.50;;;;;;5052258;28;20463;-67
2022/05/15 10:02:37;;;;;;;7.50;4.10;;;22.70;66.10;;;;;;5052272;28;20206;-68
2022/05/15 10:05:11;;;;;;;4.73;3.60;;;22.80;66.90;;;;;;5052641;28;20416;-68
2022/05/15 10:07:46;;;;;;;6.17;3.07;;;22.70;63.80;;;;;;5052090;28;20483;-68
2022/05/15 10:10:24;;;;;;;5.90;3.53;;;22.80;63.90;;;;;;5051969;28;20473;-69
2022/05/15 10:13:00;;;;;;;4.87;2.97;;;23.00;64.00;;;;;;5051499;28;20987;-67
2022/05/15 10:15:34;;;;;;;4.07;3.63;;;23.00;63.70;;;;;;5052398;28;20443;-67
2022/05/15 10:18:05;;;;;;;5.78;3.50;;;23.00;62.90;;;;;;5069561;28;20422;-65
2022/05/15 10:20:37;;;;;;;7.53;3.87;;;23.00;63.40;;;;;;5098271;28;20177;-65
2022/05/15 10:23:16;;;;;;;3.70;3.27;;;23.00;62.50;;;;;;5106880;28;20427;-66
2022/05/15 10:25:48;;;;;;;7.10;4.87;;;23.00;62.30;;;;;;5108532;28;20414;-68
2022/05/15 10:28:38;;;;;;;3.67;3.30;;;22.90;61.30;;;;;;5095351;28;20990;-68
2022/05/15 10:31:26;;;;;;;3.77;2.90;;;22.90;59.90;;;;;;5095074;28;20415;-68
2022/05/15 10:33:58;;;;;;;5.37;3.90;;;23.00;58.40;;;;;;5093726;28;20457;-68
2022/05/15 10:36:25;;;;;;;4.73;3.37;;;23.00;57.80;;;;;;5093324;28;20469;-67
2022/05/15 10:39:32;;;;;;;4.05;3.30;;;23.20;58.30;;;;;;5088935;28;20410;-70
2022/05/15 10:42:19;;;;;;;4.60;3.10;;;23.10;60.40;;;;;;5065850;28;20470;-64
2022/05/15 10:45:11;;;;;;;6.37;2.97;;;23.20;60.70;;;;;;5070818;28;20189;-64
2022/05/15 10:48:15;;;;;;;4.13;3.17;;;23.30;62.70;;;;;;5085646;28;20534;-64
2022/05/15 10:50:59;;;;;;;3.70;3.40;;;23.40;62.10;;;;;;5059372;28;20427;-65
2022/05/15 10:59:27;;;;;;;4.53;3.40;;;23.30;55.10;;;;;;5077481;28;20454;-67
2022/05/15 11:02:16;;;;;;;5.00;3.80;;;23.20;55.60;;;;;;5073447;28;20782;-67
2022/05/15 11:04:51;;;;;;;7.50;5.00;;;23.10;57.10;;;;;;5068793;28;20412;-66
2022/05/15 11:07:42;;;;;;;36.07;13.70;;;23.10;57.40;;;;;;5084759;28;20442;-64
2022/05/15 11:10:20;;;;;;;59.92;24.75;;;23.10;56.90;;;;;;5086303;28;20428;-64
2022/05/15 11:13:05;;;;;;;29.43;13.60;;;23.10;59.50;;;;;;5118272;28;20231;-64
2022/05/15 11:15:43;;;;;;;10.27;5.23;;;23.10;59.50;;;;;;5096019;28;20411;-65
2022/05/15 11:18:24;;;;;;;7.93;4.00;;;23.20;57.90;;;;;;5097187;28;20431;-65
2022/05/15 11:20:55;;;;;;;3.50;2.77;;;23.10;57.50;;;;;;5102568;28;20412;-65
2022/05/15 11:23:44;;;;;;;4.20;2.70;;;23.00;55.60;;;;;;5095759;28;20436;-68
2022/05/15 11:26:37;;;;;;;5.80;3.07;;;23.00;55.90;;;;;;5074164;28;20466;-67
2022/05/15 11:29:09;;;;;;;3.23;2.93;;;23.20;57.00;;;;;;5072633;28;20420;-67
2022/05/15 11:31:42;;;;;;;5.13;3.50;;;23.30;57.50;;;;;;5080401;28;20456;-67
2022/05/15 11:34:08;;;;;;;3.40;3.10;;;23.30;58.10;;;;;;5079632;28;20423;-68
2022/05/15 11:36:48;;;;;;;4.30;3.30;;;23.40;57.90;;;;;;5042321;22;21115;-72
2022/05/15 11:39:13;;;;;;;5.77;3.17;;;23.30;57.70;;;;;;4985471;28;20407;-71
2022/05/15 11:42:10;;;;;;;3.20;2.90;;;23.30;58.90;;;;;;4972003;28;21003;-72
2022/05/15 11:44:38;;;;;;;6.23;3.20;;;23.30;58.60;;;;;;4970630;28;20306;-72
2022/05/15 11:47:22;;;;;;;5.60;3.20;;;23.40;58.40;;;;;;4970285;28;20449;-72
2022/05/15 11:50:05;;;;;;;3.83;2.80;;;23.40;57.50;;;;;;4970352;28;20796;-72
2022/05/15 11:52:50;;;;;;;4.10;2.60;;;23.40;57.80;;;;;;4968525;28;20444;-72
2022/05/15 11:55:48;;;;;;;7.23;2.90;;;23.40;57.10;;;;;;4970117;28;20490;-72
2022/05/15 11:58:26;;;;;;;3.80;3.13;;;23.40;56.40;;;;;;4971276;28;20405;-72
2022/05/15 12:01:05;;;;;;;4.53;2.73;;;23.40;56.70;;;;;;4969498;28;20444;-72
2022/05/15 12:03:34;;;;;;;4.83;2.50;;;23.40;56.80;;;;;;4951294;29;20417;-71
2022/05/15 12:06:13;;;;;;;4.60;3.10;;;23.40;55.40;;;;;;4952343;28;20432;-72
2022/05/15 12:08:41;;;;;;;3.10;2.30;;;23.40;54.60;;;;;;4952794;28;20832;-72
2022/05/15 12:11:25;;;;;;;2.40;2.30;;;23.40;55.20;;;;;;4952135;28;20409;-71
2022/05/15 12:13:52;;;;;;;3.00;2.80;;;23.40;55.70;;;;;;4971225;28;20454;-71
2022/05/15 12:16:32;;;;;;;3.93;2.90;;;23.30;54.10;;;;;;4970274;28;20452;-71
2022/05/15 12:19:36;;;;;;;3.67;2.73;;;23.20;53.40;;;;;;4971591;28;20421;-71
2022/05/15 12:22:07;;;;;;;4.03;2.50;;;23.30;53.70;;;;;;4970164;28;20432;-71
2022/05/15 12:24:37;;;;;;;3.40;2.40;;;23.30;53.50;;;;;;4972343;28;20482;-71
2022/05/15 12:27:20;;;;;;;4.80;3.07;;;23.30;54.20;;;;;;4972892;28;20910;-71
2022/05/15 12:30:09;;;;;;;2.63;2.43;;;23.40;55.30;;;;;;4970859;28;20419;-71
2022/05/15 12:32:44;;;;;;;3.50;3.30;;;23.30;54.30;;;;;;4970462;28;20419;-71
2022/05/15 12:35:14;;;;;;;4.10;2.93;;;23.30;54.60;;;;;;4951863;28;20482;-72
2022/05/15 12:37:52;;;;;;;3.13;2.67;;;23.30;54.80;;;;;;4968338;28;20451;-71
2022/05/15 12:40:27;;;;;;;3.53;2.60;;;23.30;55.10;;;;;;4970701;28;20482;-71
2022/05/15 12:42:53;;;;;;;4.50;2.90;;;23.40;55.70;;;;;;4970840;28;20446;-71
2022/05/15 12:45:21;;;;;;;5.47;3.30;;;23.40;55.80;;;;;;4970863;28;20960;-72
2022/05/15 12:48:08;;;;;;;4.53;3.47;;;23.50;56.10;;;;;;4968872;28;20448;-72
2022/05/15 12:50:54;;;;;;;3.80;3.10;;;23.50;56.20;;;;;;4971672;28;20414;-71
2022/05/15 12:53:26;;;;;;;6.50;2.83;;;23.50;54.70;;;;;;4972285;28;20448;-72
2022/05/15 12:55:53;;;;;;;6.73;3.00;;;23.50;54.00;;;;;;4972134;28;20428;-71
2022/05/15 12:58:33;;;;;;;3.27;2.97;;;23.60;53.70;;;;;;4970012;28;20503;-72
2022/05/15 13:01:00;;;;;;;5.43;2.73;;;23.70;53.20;;;;;;4971281;28;20444;-72
2022/05/15 13:03:27;;;;;;;4.27;3.07;;;23.70;51.40;;;;;;4971694;28;20412;-72
2022/05/15 13:06:01;;;;;;;4.30;2.57;;;23.80;51.40;;;;;;4971684;28;20797;-72
2022/05/15 13:08:46;;;;;;;2.30;2.10;;;23.90;51.70;;;;;;4968349;28;20998;-72
2022/05/15 13:11:21;;;;;;;5.23;2.80;;;24.00;52.50;;;;;;4971265;28;20416;-72
2022/05/15 13:13:47;;;;;;;3.93;2.90;;;24.10;53.10;;;;;;4973550;28;20408;-72
2022/05/15 13:16:19;;;;;;;2.70;2.50;;;24.20;53.40;;;;;;4974903;28;20432;-72
2022/05/15 13:18:47;;;;;;;7.10;3.20;;;24.20;53.10;;;;;;4972783;28;20454;-72